createdAt,value
2018-03-19T00:00:07.182Z,15.02
2018-03-19T00:02:35.238Z,15.73
2018-03-19T00:05:03.557Z,15.82
2018-03-19T00:07:33.183Z,14.65
2018-03-19T00:10:03.072Z,12.98
2018-03-19T00:12:31.362Z,14.80
2018-03-19T00:15:01.384Z,15.27
2018-03-19T00:17:30.446Z,17.10
2018-03-19T00:19:58.764Z,16.15
2018-03-19T00:22:28.688Z,14.30
2018-03-19T00:24:57.765Z,15.57
2018-03-19T00:27:26.059Z,17.23
2018-03-19T00:29:55.252Z,16.10
2018-03-19T00:32:23.554Z,17.02
2018-03-19T00:34:51.842Z,17.37
2018-03-19T00:37:21.527Z,16.87
2018-03-19T00:39:49.822Z,15.18
2018-03-19T00:42:18.172Z,16.80
2018-03-19T00:44:47.084Z,17.85
2018-03-19T00:47:15.363Z,16.85
2018-03-19T00:49:43.649Z,15.93
2018-03-19T00:52:12.603Z,18.10
2018-03-19T00:54:40.882Z,15.88
2018-03-19T00:57:09.170Z,16.33
2018-03-19T00:59:38.127Z,16.62
2018-03-19T01:02:07.193Z,17.60
2018-03-19T01:04:35.487Z,16.05
2018-03-19T01:07:04.478Z,17.75
2018-03-19T01:09:32.785Z,16.80
2018-03-19T01:12:01.861Z,17.08
2018-03-19T01:14:31.179Z,18.42
2018-03-19T01:16:59.457Z,17.80
2018-03-19T01:19:27.753Z,18.10
2018-03-19T01:21:56.496Z,16.70
2018-03-19T01:24:26.001Z,16.45
2018-03-19T01:26:54.282Z,18.05
2018-03-19T01:29:23.536Z,16.12
2018-03-19T01:31:55.746Z,17.87
2018-03-19T01:34:24.730Z,16.15
2018-03-19T01:36:53.029Z,18.08
2018-03-19T01:39:21.567Z,15.88
2018-03-19T01:41:51.301Z,15.98
2018-03-19T01:44:20.361Z,16.60
2018-03-19T01:46:48.645Z,15.98
2018-03-19T01:49:17.680Z,17.65
2018-03-19T01:51:45.991Z,17.77
2018-03-19T01:54:14.269Z,16.42
2018-03-19T01:56:43.269Z,16.60
2018-03-19T01:59:11.566Z,16.15
2018-03-19T02:01:39.849Z,16.23
2018-03-19T02:04:09.318Z,17.08
2018-03-19T02:06:37.628Z,17.05
2018-03-19T02:09:05.914Z,16.48
2018-03-19T02:11:34.618Z,18.67
2018-03-19T02:14:02.909Z,19.73
2018-03-19T02:16:31.214Z,16.52
2018-03-19T02:19:01.022Z,17.73
2018-03-19T02:21:29.303Z,16.10
2018-03-19T02:23:57.591Z,18.27
2018-03-19T02:26:27.790Z,18.45
2018-03-19T02:28:56.156Z,17.70
2018-03-19T02:31:24.663Z,17.42
2018-03-19T02:33:53.556Z,17.60
2018-03-19T02:36:21.861Z,17.20
2018-03-19T02:38:50.161Z,18.05
2018-03-19T02:41:18.872Z,18.12
2018-03-19T02:43:47.142Z,17.85
2018-03-19T02:46:15.423Z,19.50
2018-03-19T02:48:44.367Z,20.88
2018-03-19T02:51:12.662Z,18.02
2018-03-19T02:53:40.954Z,19.67
2018-03-19T02:56:10.951Z,18.90
2018-03-19T02:58:39.259Z,17.15
2018-03-19T03:01:08.586Z,20.48
2018-03-19T03:03:37.547Z,22.45
2018-03-19T03:06:05.833Z,19.62
2018-03-19T03:08:34.888Z,20.23
2018-03-19T03:11:04.123Z,20.12
2018-03-19T03:13:33.191Z,19.70
2018-03-19T03:16:01.762Z,19.95
2018-03-19T03:18:31.056Z,18.77
2018-03-19T03:20:59.337Z,19.77
2018-03-19T03:23:27.628Z,22.55
2018-03-19T03:25:56.760Z,18.00
2018-03-19T03:28:26.044Z,21.08
2018-03-19T03:30:54.345Z,21.65
2018-03-19T03:33:23.223Z,20.35
2018-03-19T03:35:51.529Z,21.92
2018-03-19T03:38:19.890Z,19.80
2018-03-19T03:40:48.810Z,19.25
2018-03-19T03:43:17.119Z,20.98
2018-03-19T03:45:46.173Z,22.08
2018-03-19T03:48:15.595Z,21.73
2018-03-19T03:50:43.873Z,21.50
2018-03-19T03:53:12.150Z,22.48
2018-03-19T03:55:41.099Z,22.75
2018-03-19T03:58:10.148Z,22.58
2018-03-19T04:00:38.437Z,21.25
2018-03-19T04:03:07.648Z,22.35
2018-03-19T04:05:36.294Z,22.77
2018-03-19T04:08:04.645Z,23.17
2018-03-19T04:10:33.827Z,21.25
2018-03-19T04:13:02.912Z,20.85
2018-03-19T04:15:32.349Z,22.48
2018-03-19T04:18:01.188Z,22.02
2018-03-19T04:20:33.893Z,24.37
2018-03-19T04:23:04.401Z,24.55
2018-03-19T04:25:32.681Z,21.80
2018-03-19T04:28:01.856Z,21.62
2018-03-19T04:30:33.679Z,21.33
2018-03-19T04:33:01.984Z,22.62
2018-03-19T04:35:31.030Z,24.55
2018-03-19T04:38:00.984Z,24.55
2018-03-19T04:40:29.271Z,23.77
2018-03-19T04:42:58.337Z,23.25
2018-03-19T04:45:27.028Z,27.25
2018-03-19T04:47:55.339Z,25.20
2018-03-19T04:50:23.629Z,28.38
2018-03-19T04:52:53.622Z,24.77
2018-03-19T04:55:22.005Z,23.75
2018-03-19T04:57:50.353Z,24.20
2018-03-19T05:00:19.996Z,24.73
2018-03-19T05:02:48.293Z,23.62
2018-03-19T05:05:17.384Z,21.92
2018-03-19T05:07:46.585Z,23.83
2018-03-19T05:10:14.870Z,24.48
2018-03-19T05:12:43.174Z,23.25
2018-03-19T05:15:12.614Z,22.73
2018-03-19T05:17:40.942Z,24.30
2018-03-19T05:20:09.242Z,24.85
2018-03-19T05:22:38.803Z,24.87
2018-03-19T05:25:07.862Z,23.50
2018-03-19T05:27:36.170Z,24.23
2018-03-19T05:30:05.824Z,25.48
2018-03-19T05:32:35.807Z,24.83
2018-03-19T05:35:04.099Z,22.52
2018-03-19T05:37:32.831Z,24.77
2018-03-19T05:40:01.111Z,23.55
2018-03-19T05:42:30.191Z,24.08
2018-03-19T05:44:59.185Z,23.27
2018-03-19T05:47:27.479Z,23.80
2018-03-19T05:49:55.770Z,26.37
2018-03-19T05:52:25.635Z,24.12
2018-03-19T05:54:53.930Z,23.50
2018-03-19T05:57:22.236Z,24.65
2018-03-19T05:59:51.270Z,23.83
2018-03-19T06:02:20.326Z,24.27
2018-03-19T06:04:48.632Z,24.33
2018-03-19T06:07:19.051Z,25.17
2018-03-19T06:09:47.427Z,25.10
2018-03-19T06:12:15.731Z,24.95
2018-03-19T06:14:45.756Z,25.02
2018-03-19T06:17:14.820Z,25.23
2018-03-19T06:19:43.140Z,22.55
2018-03-19T06:22:13.266Z,24.92
2018-03-19T06:24:42.317Z,24.50
2018-03-19T06:27:10.869Z,23.23
2018-03-19T06:29:39.612Z,24.40
2018-03-19T06:32:08.078Z,22.02
2018-03-19T06:34:38.591Z,23.35
2018-03-19T06:37:07.326Z,23.55
2018-03-19T06:39:35.625Z,24.77
2018-03-19T06:42:03.911Z,23.10
2018-03-19T06:44:33.873Z,22.05
2018-03-19T06:47:02.221Z,21.85
2018-03-19T06:49:30.524Z,26.10
2018-03-19T06:51:59.507Z,21.05
2018-03-19T06:54:27.778Z,23.58
2018-03-19T06:56:56.822Z,23.25
2018-03-19T06:59:26.021Z,24.08
2018-03-19T07:01:54.383Z,21.92
2018-03-19T07:04:22.710Z,21.83
2018-03-19T07:06:51.922Z,25.08
2018-03-19T07:09:20.831Z,23.15
2018-03-19T07:11:49.160Z,21.77
2018-03-19T07:14:17.926Z,21.75
2018-03-19T07:16:46.269Z,22.52
2018-03-19T07:19:14.578Z,22.80
2018-03-19T07:21:44.303Z,22.58
2018-03-19T07:24:12.979Z,21.75
2018-03-19T07:26:41.323Z,23.23
2018-03-19T07:29:10.304Z,22.90
2018-03-19T07:31:38.684Z,22.10
2018-03-19T07:34:07.082Z,22.13
2018-03-19T07:36:38.499Z,23.12
2018-03-19T07:39:07.730Z,23.50
2018-03-19T07:41:36.226Z,20.48
2018-03-19T07:44:05.652Z,24.40
2018-03-19T07:46:34.168Z,21.10
2018-03-19T07:49:03.035Z,21.48
2018-03-19T07:51:33.017Z,20.85
2018-03-19T07:54:01.573Z,20.90
2018-03-19T07:56:31.792Z,22.35
2018-03-19T07:59:01.299Z,23.40
2018-03-19T08:01:30.872Z,19.35
2018-03-19T08:04:01.839Z,19.40
2018-03-19T08:06:30.946Z,21.58
2018-03-19T08:09:00.089Z,22.55
2018-03-19T08:11:29.354Z,22.73
2018-03-19T08:13:57.693Z,23.70
2018-03-19T08:16:26.085Z,23.38
2018-03-19T08:18:54.983Z,22.75
2018-03-19T08:21:23.810Z,22.00
2018-03-19T08:23:52.452Z,21.55
2018-03-19T08:26:21.659Z,22.08
2018-03-19T08:28:49.948Z,21.40
2018-03-19T08:31:18.246Z,20.08
2018-03-19T08:33:47.182Z,20.08
2018-03-19T08:36:15.530Z,22.42
2018-03-19T08:38:45.290Z,20.33
2018-03-19T08:41:13.697Z,19.60
2018-03-19T08:43:42.411Z,21.62
2018-03-19T08:46:11.708Z,19.75
2018-03-19T08:48:41.133Z,19.17
2018-03-19T08:51:09.645Z,19.45
2018-03-19T08:53:38.008Z,18.12
2018-03-19T08:56:07.539Z,19.80
2018-03-19T08:58:35.885Z,19.80
2018-03-19T09:01:04.800Z,18.35
2018-03-19T09:03:34.168Z,22.15
2018-03-19T09:06:02.976Z,20.02
2018-03-19T09:08:32.285Z,19.70
2018-03-19T09:11:01.789Z,21.20
2018-03-19T09:13:30.471Z,20.30
2018-03-19T09:15:59.646Z,19.42
2018-03-19T09:18:29.075Z,19.12
2018-03-19T09:20:57.460Z,19.35
2018-03-19T09:23:26.561Z,18.70
2018-03-19T09:25:55.249Z,18.45
2018-03-19T09:28:24.092Z,22.23
2018-03-19T09:30:53.269Z,23.10
2018-03-19T09:33:22.879Z,21.70
2018-03-19T09:35:51.667Z,21.77
2018-03-19T09:38:20.150Z,21.37
2018-03-19T09:40:51.840Z,19.87
2018-03-19T09:43:21.419Z,20.70
2018-03-19T09:45:49.916Z,21.02
2018-03-19T09:48:20.345Z,19.90
2018-03-19T09:50:50.159Z,20.70
2018-03-19T09:53:18.521Z,19.83
2018-03-19T09:55:47.339Z,21.52
2018-03-19T09:58:16.687Z,19.50
2018-03-19T10:00:45.859Z,21.40
2018-03-19T10:03:15.530Z,20.67
2018-03-19T10:05:43.806Z,20.83
2018-03-19T10:08:12.339Z,20.35
2018-03-19T10:10:42.219Z,19.65
2018-03-19T10:13:12.528Z,20.17
2018-03-19T10:15:42.603Z,20.88
2018-03-19T10:18:11.290Z,19.27
2018-03-19T10:20:40.665Z,22.08
2018-03-19T10:23:09.699Z,22.50
2018-03-19T10:25:39.044Z,23.02
2018-03-19T10:28:07.453Z,22.33
2018-03-19T10:30:36.744Z,21.98
2018-03-19T10:33:05.089Z,19.92
2018-03-19T10:35:33.383Z,20.73
2018-03-19T10:38:02.559Z,20.05
2018-03-19T10:40:30.884Z,20.75
2018-03-19T10:43:01.748Z,22.00
2018-03-19T10:45:30.691Z,21.08
2018-03-19T10:47:59.506Z,21.73
2018-03-19T10:50:28.285Z,20.80
2018-03-19T10:52:57.285Z,22.08
2018-03-19T10:55:26.400Z,21.50
2018-03-19T10:57:55.579Z,19.35
2018-03-19T11:00:25.971Z,21.15
2018-03-19T11:02:54.832Z,22.83
2018-03-19T11:05:30.288Z,21.23
2018-03-19T11:08:04.771Z,21.00
2018-03-19T11:10:34.238Z,21.48
2018-03-19T11:13:02.602Z,20.00
2018-03-19T11:15:31.988Z,19.58
2018-03-19T11:18:03.680Z,22.60
2018-03-19T11:20:33.963Z,22.08
2018-03-19T11:23:06.373Z,23.90
2018-03-19T11:25:35.595Z,21.08
2018-03-19T11:28:05.137Z,22.25
2018-03-19T11:30:33.906Z,19.08
2018-03-19T11:33:05.475Z,19.65
2018-03-19T11:35:39.817Z,22.87
2018-03-19T11:38:09.222Z,24.20
2018-03-19T11:40:37.668Z,21.52
2018-03-19T11:43:08.950Z,17.50
2018-03-19T11:45:37.714Z,20.98
2018-03-19T11:48:06.155Z,22.65
2018-03-19T11:50:36.028Z,23.48
2018-03-19T11:53:05.730Z,22.10
2018-03-19T11:55:36.112Z,22.42
2018-03-19T11:58:05.411Z,23.12
2018-03-19T12:00:34.532Z,21.12
2018-03-19T12:03:03.733Z,21.90
2018-03-19T12:05:35.401Z,24.50
2018-03-19T12:08:06.440Z,25.08
2018-03-19T12:10:36.111Z,26.58
2018-03-19T12:13:04.646Z,25.65
2018-03-19T12:15:34.225Z,23.98
2018-03-19T12:18:04.234Z,24.85
2018-03-19T12:20:33.178Z,23.60
2018-03-19T12:23:03.088Z,24.20
2018-03-19T12:25:33.330Z,23.12
2018-03-19T12:28:02.207Z,22.20
2018-03-19T12:30:32.310Z,23.95
2018-03-19T12:33:02.176Z,23.42
2018-03-19T12:35:30.752Z,22.92
2018-03-19T12:38:01.529Z,22.27
2018-03-19T12:40:31.642Z,21.70
2018-03-19T12:43:00.640Z,23.75
2018-03-19T12:45:32.046Z,24.37
2018-03-19T12:48:00.539Z,24.23
2018-03-19T12:50:29.505Z,22.30
2018-03-19T12:52:59.043Z,24.30
2018-03-19T12:55:27.693Z,23.70
2018-03-19T12:57:56.262Z,22.35
2018-03-19T13:00:25.585Z,21.33
2018-03-19T13:02:54.278Z,20.90
2018-03-19T13:05:23.004Z,22.00
2018-03-19T13:07:52.228Z,21.85
2018-03-19T13:10:20.774Z,20.20
2018-03-19T13:12:49.563Z,21.05
2018-03-19T13:15:18.994Z,20.45
2018-03-19T13:17:47.994Z,22.62
2018-03-19T13:20:16.657Z,22.17
2018-03-19T13:22:46.157Z,20.45
2018-03-19T13:25:15.241Z,22.40
2018-03-19T13:27:43.668Z,23.17
2018-03-19T13:30:12.969Z,20.80
2018-03-19T13:32:41.921Z,22.70
2018-03-19T13:35:11.066Z,20.65
2018-03-19T13:37:41.164Z,24.58
2018-03-19T13:40:10.330Z,22.13
2018-03-19T13:42:38.978Z,23.35
2018-03-19T13:45:08.855Z,21.98
2018-03-19T13:47:39.302Z,21.62
2018-03-19T13:50:07.591Z,22.13
2018-03-19T13:52:38.660Z,21.65
2018-03-19T13:55:08.312Z,23.73
2018-03-19T13:57:37.035Z,21.27
2018-03-19T14:00:07.683Z,24.87
2018-03-19T14:02:36.662Z,22.80
2018-03-19T14:05:06.232Z,21.67
2018-03-19T14:07:35.306Z,23.48
2018-03-19T14:10:04.994Z,22.87
2018-03-19T14:12:33.732Z,21.87
2018-03-19T14:15:02.832Z,21.37
2018-03-19T14:17:31.799Z,21.45
2018-03-19T14:20:08.734Z,22.35
2018-03-19T14:22:38.595Z,22.83
2018-03-19T14:25:09.955Z,20.50
2018-03-19T14:27:38.515Z,18.98
2018-03-19T14:30:07.514Z,21.85
2018-03-19T14:32:37.515Z,20.35
2018-03-19T14:35:06.616Z,21.00
2018-03-19T14:37:35.132Z,21.65
2018-03-19T14:40:05.850Z,21.33
2018-03-19T14:42:36.067Z,20.42
2018-03-19T14:45:04.974Z,21.40
2018-03-19T14:47:34.050Z,19.10
2018-03-19T14:50:04.239Z,22.17
2018-03-19T14:52:33.721Z,20.58
2018-03-19T14:55:03.755Z,21.25
2018-03-19T14:57:34.724Z,23.75
2018-03-19T15:00:03.787Z,20.77
2018-03-19T15:02:32.557Z,22.05
2018-03-19T15:05:02.341Z,22.05
2018-03-19T15:07:32.108Z,23.15
2018-03-19T15:10:01.802Z,21.42
2018-03-19T15:12:30.893Z,22.67
2018-03-19T15:15:01.203Z,22.08
2018-03-19T15:17:31.655Z,19.55
2018-03-19T15:20:03.138Z,20.98
2018-03-19T15:22:32.816Z,22.13
2018-03-19T15:25:01.659Z,22.30
2018-03-19T15:27:31.698Z,22.25
2018-03-19T15:30:00.456Z,23.10
2018-03-19T15:32:29.915Z,21.55
2018-03-19T15:34:59.393Z,21.25
2018-03-19T15:37:27.756Z,20.92
2018-03-19T15:39:57.034Z,19.70
2018-03-19T15:42:26.134Z,21.02
2018-03-19T15:44:55.155Z,21.30
2018-03-19T15:47:23.518Z,21.58
2018-03-19T15:49:53.546Z,21.05
2018-03-19T15:52:24.837Z,21.45
2018-03-19T15:54:54.767Z,21.48
2018-03-19T15:57:23.418Z,21.48
2018-03-19T15:59:52.710Z,20.27
2018-03-19T16:02:23.858Z,22.67
2018-03-19T16:04:52.933Z,21.15
2018-03-19T16:07:24.163Z,22.20
2018-03-19T16:09:53.854Z,20.75
2018-03-19T16:12:24.168Z,23.02
2018-03-19T16:14:54.421Z,21.58
2018-03-19T16:17:25.363Z,20.70
2018-03-19T16:19:55.765Z,23.58
2018-03-19T16:22:24.427Z,21.17
2018-03-19T16:24:54.351Z,23.60
2018-03-19T16:27:24.028Z,23.00
2018-03-19T16:29:55.962Z,25.27
2018-03-19T16:32:25.818Z,23.75
2018-03-19T16:34:55.746Z,21.83
2018-03-19T16:37:24.722Z,24.02
2018-03-19T16:39:53.888Z,25.92
2018-03-19T16:42:23.462Z,25.92
2018-03-19T16:44:51.854Z,24.37
2018-03-19T16:47:20.740Z,24.35
2018-03-19T16:49:50.343Z,27.42
2018-03-19T16:52:19.160Z,26.25
2018-03-19T16:54:50.482Z,25.67
2018-03-19T16:57:19.199Z,24.55
2018-03-19T16:59:48.271Z,25.45
2018-03-19T17:02:18.684Z,24.48
2018-03-19T17:04:47.453Z,28.02
2018-03-19T17:07:17.122Z,27.73
2018-03-19T17:09:46.527Z,25.33
2018-03-19T17:12:15.388Z,25.45
2018-03-19T17:14:45.808Z,25.30
2018-03-19T17:17:16.233Z,29.70
2018-03-19T17:19:44.593Z,21.35
2018-03-19T17:22:12.969Z,27.00
2018-03-19T17:24:43.622Z,25.92
2018-03-19T17:27:12.526Z,26.80
2018-03-19T17:29:42.286Z,25.45
2018-03-19T17:32:11.720Z,24.58
2018-03-19T17:34:41.234Z,24.83
2018-03-19T17:37:10.014Z,28.17
2018-03-19T17:39:40.352Z,27.90
2018-03-19T17:42:08.828Z,27.08
2018-03-19T17:44:38.558Z,26.67
2018-03-19T17:47:08.580Z,25.67
2018-03-19T17:49:37.667Z,25.62
2018-03-19T17:52:05.987Z,24.95
2018-03-19T17:54:35.183Z,28.52
2018-03-19T17:57:05.902Z,29.25
2018-03-19T17:59:35.426Z,28.62
2018-03-19T18:02:04.980Z,27.95
2018-03-19T18:04:33.836Z,29.90
2018-03-19T18:07:03.342Z,23.23
2018-03-19T18:09:32.390Z,25.00
2018-03-19T18:12:01.512Z,24.98
2018-03-19T18:14:31.004Z,24.05
2018-03-19T18:17:00.351Z,24.60
2018-03-19T18:19:29.057Z,24.48
2018-03-19T18:21:58.623Z,25.00
2018-03-19T18:24:27.052Z,26.80
2018-03-19T18:26:55.360Z,27.80
2018-03-19T18:29:24.401Z,24.60
2018-03-19T18:31:53.637Z,27.90
2018-03-19T18:34:22.076Z,25.73
2018-03-19T18:36:51.315Z,27.10
2018-03-19T18:39:20.370Z,26.20
2018-03-19T18:41:48.687Z,26.60
2018-03-19T18:44:17.708Z,29.17
2018-03-19T18:46:46.290Z,29.25
2018-03-19T18:49:14.986Z,25.95
2018-03-19T18:51:45.164Z,30.65
2018-03-19T18:54:13.882Z,31.70
2018-03-19T18:56:42.273Z,30.00
2018-03-19T18:59:13.353Z,28.95
2018-03-19T19:01:41.673Z,30.55
2018-03-19T19:04:10.761Z,27.70
2018-03-19T19:06:39.919Z,27.10
2018-03-19T19:09:08.522Z,30.65
2018-03-19T19:11:36.852Z,31.30
2018-03-19T19:14:07.876Z,22.37
2018-03-19T19:16:36.504Z,26.87
2018-03-19T19:19:06.335Z,26.60
2018-03-19T19:21:35.918Z,26.17
2018-03-19T19:24:04.465Z,25.65
2018-03-19T19:26:33.030Z,29.75
2018-03-19T19:29:02.135Z,30.58
2018-03-19T19:31:31.779Z,26.70
2018-03-19T19:34:00.712Z,28.45
2018-03-19T19:36:29.876Z,29.50
2018-03-19T19:38:58.768Z,30.30
2018-03-19T19:41:27.278Z,29.65
2018-03-19T19:43:57.504Z,29.27
2018-03-19T19:46:27.452Z,26.37
2018-03-19T19:48:56.476Z,28.20
2018-03-19T19:51:26.463Z,26.25
2018-03-19T19:53:55.792Z,26.30
2018-03-19T19:56:25.497Z,29.30
2018-03-19T19:58:56.577Z,26.98
2018-03-19T20:01:27.048Z,30.55
2018-03-19T20:03:58.013Z,29.10
2018-03-19T20:06:26.567Z,27.65
2018-03-19T20:08:55.027Z,29.08
2018-03-19T20:11:23.814Z,28.70
2018-03-19T20:13:53.562Z,26.65
2018-03-19T20:16:30.617Z,30.35
2018-03-19T20:19:01.691Z,25.20
2018-03-19T20:21:33.251Z,27.52
2018-03-19T20:24:03.316Z,29.67
2018-03-19T20:26:31.696Z,29.52
2018-03-19T20:29:00.547Z,28.70
2018-03-19T20:31:29.137Z,28.02
2018-03-19T20:33:57.651Z,29.10
2018-03-19T20:36:26.938Z,31.00
2018-03-19T20:38:55.323Z,30.88
2018-03-19T20:41:23.777Z,30.40
2018-03-19T20:43:54.961Z,28.95
2018-03-19T20:46:24.093Z,30.60
2018-03-19T20:48:52.439Z,28.62
2018-03-19T20:51:21.872Z,29.17
2018-03-19T20:53:50.177Z,28.40
2018-03-19T20:56:18.526Z,29.45
2018-03-19T20:58:46.827Z,29.77
2018-03-19T21:01:15.812Z,31.75
2018-03-19T21:03:45.904Z,31.40
2018-03-19T21:06:16.256Z,28.83
2018-03-19T21:08:45.389Z,32.30
2018-03-19T21:11:13.755Z,34.38
2018-03-19T21:13:42.536Z,33.47
2018-03-19T21:16:11.266Z,32.75
2018-03-19T21:18:39.986Z,31.45
2018-03-19T21:21:09.381Z,31.12
2018-03-19T21:23:39.624Z,29.10
2018-03-19T21:26:07.937Z,32.60
2018-03-19T21:28:37.133Z,35.50
2018-03-19T21:31:05.954Z,30.73
2018-03-19T21:33:34.511Z,34.70
2018-03-19T21:36:03.263Z,32.35
2018-03-19T21:38:31.614Z,32.42
2018-03-19T21:40:59.999Z,33.03
2018-03-19T21:43:28.855Z,33.72
2018-03-19T21:45:57.178Z,31.10
2018-03-19T21:48:26.283Z,32.13
2018-03-19T21:50:56.118Z,31.80
2018-03-19T21:53:24.583Z,32.33
2018-03-19T21:55:52.907Z,31.40
2018-03-19T21:58:21.821Z,26.12
2018-03-19T22:00:50.122Z,28.40
2018-03-19T22:03:19.247Z,31.25
2018-03-19T22:05:50.036Z,31.05
2018-03-19T22:08:18.437Z,31.30
2018-03-19T22:10:47.956Z,32.95
2018-03-19T22:13:16.727Z,28.35
2018-03-19T22:15:45.566Z,29.58
2018-03-19T22:18:14.092Z,31.37
2018-03-19T22:20:43.238Z,29.37
2018-03-19T22:23:11.658Z,29.98
2018-03-19T22:25:40.037Z,29.02
2018-03-19T22:28:10.636Z,33.35
2018-03-19T22:30:39.048Z,36.13
2018-03-19T22:33:08.133Z,35.17
2018-03-19T22:35:37.959Z,36.92
2018-03-19T22:38:07.054Z,35.08
2018-03-19T22:40:35.364Z,35.28
2018-03-19T22:43:04.438Z,35.97
2018-03-19T22:45:33.506Z,36.28
2018-03-19T22:48:02.083Z,34.25
2018-03-19T22:50:30.981Z,33.90
2018-03-19T22:52:59.305Z,27.33
2018-03-19T22:55:28.379Z,32.20
2018-03-19T22:57:57.595Z,34.72
2018-03-19T23:00:26.231Z,35.55
2018-03-19T23:02:54.559Z,34.47
2018-03-19T23:05:24.344Z,36.13
2018-03-19T23:07:54.563Z,35.88
2018-03-19T23:10:22.854Z,37.03
2018-03-19T23:12:51.922Z,36.25
2018-03-19T23:15:20.238Z,36.65
2018-03-19T23:17:48.554Z,33.03
2018-03-19T23:20:17.533Z,31.70
2018-03-19T23:22:45.840Z,34.85
2018-03-19T23:25:14.203Z,33.20
2018-03-19T23:27:44.223Z,34.47
2018-03-19T23:30:12.559Z,33.00
2018-03-19T23:32:40.885Z,33.55
2018-03-19T23:35:09.867Z,35.40
2018-03-19T23:40:13.896Z,35.15
2018-03-19T23:42:42.277Z,32.97
2018-03-19T23:45:10.606Z,35.28
2018-03-19T23:47:40.506Z,35.25
2018-03-19T23:50:08.817Z,33.30
2018-03-19T23:52:37.117Z,30.80
2018-03-19T23:55:06.351Z,30.88
2018-03-19T23:57:34.755Z,32.20
